createdAt,value
2022-08-05T00:00:13.150Z,3.20
2022-08-05T00:02:43.860Z,2.90
2022-08-05T00:05:27.209Z,2.85
2022-08-05T00:08:06.336Z,2.58
2022-08-05T00:10:52.984Z,3.00
2022-08-05T00:13:20.222Z,2.90
2022-08-05T00:16:06.347Z,2.85
2022-08-05T00:18:35.819Z,2.55
2022-08-05T00:21:06.465Z,2.85
2022-08-05T00:23:46.657Z,3.10
2022-08-05T00:26:20.708Z,3.00
2022-08-05T00:28:49.427Z,2.83
2022-08-05T00:31:16.712Z,2.95
2022-08-05T00:34:56.731Z,2.70
2022-08-05T00:37:11.239Z,3.17
2022-08-05T00:39:57.120Z,2.80
2022-08-05T00:42:32.784Z,2.90
2022-08-05T00:45:00.245Z,3.22
2022-08-05T00:47:53.496Z,2.78
2022-08-05T00:50:14.635Z,2.70
2022-08-05T00:52:42.351Z,2.58
2022-08-05T00:55:12.745Z,2.85
2022-08-05T00:57:58.797Z,3.20
2022-08-05T01:00:27.670Z,3.13
2022-08-05T01:02:55.084Z,3.00
2022-08-05T01:05:22.408Z,3.00
2022-08-05T01:08:40.147Z,2.60
2022-08-05T01:10:57.921Z,2.75
2022-08-05T01:13:57.835Z,2.70
2022-08-05T01:16:27.685Z,2.92
2022-08-05T01:18:57.500Z,2.72
2022-08-05T01:21:25.722Z,3.10
2022-08-05T01:24:14.871Z,3.45
2022-08-05T01:27:00.694Z,3.00
2022-08-05T01:29:47.851Z,2.70
2022-08-05T01:32:19.296Z,2.78
2022-08-05T01:34:48.105Z,2.40
2022-08-05T01:37:24.881Z,2.90
2022-08-05T01:39:54.990Z,2.40
2022-08-05T01:42:27.251Z,2.90
2022-08-05T01:44:56.665Z,2.70
2022-08-05T01:47:39.567Z,2.78
2022-08-05T01:50:15.954Z,2.80
2022-08-05T01:52:50.154Z,2.33
2022-08-05T01:55:18.735Z,2.65
2022-08-05T01:58:11.973Z,2.50
2022-08-05T02:00:37.460Z,2.22
2022-08-05T02:03:07.563Z,2.72
2022-08-05T02:05:53.493Z,2.78
2022-08-05T02:08:29.752Z,2.58
2022-08-05T02:11:00.570Z,3.03
2022-08-05T02:13:53.302Z,2.97
2022-08-05T02:16:35.899Z,2.80
2022-08-05T02:19:16.907Z,2.72
2022-08-05T02:21:49.220Z,2.60
2022-08-05T02:24:19.390Z,3.00
2022-08-05T02:26:54.574Z,3.00
2022-08-05T02:29:26.182Z,2.92
2022-08-05T02:32:10.746Z,2.75
2022-08-05T02:34:38.843Z,2.75
2022-08-05T02:37:09.836Z,2.72
2022-08-05T02:39:38.677Z,3.10
2022-08-05T02:42:09.131Z,3.25
2022-08-05T02:44:38.192Z,2.90
2022-08-05T02:47:06.805Z,3.40
2022-08-05T02:49:37.703Z,3.10
2022-08-05T02:52:11.443Z,3.10
2022-08-05T02:54:42.662Z,3.00
2022-08-05T02:58:19.730Z,3.00
2022-08-05T03:00:06.526Z,2.67
2022-08-05T03:02:37.508Z,3.40
2022-08-05T03:05:05.712Z,2.72
2022-08-05T03:08:00.937Z,2.90
2022-08-05T03:10:22.011Z,3.50
2022-08-05T03:12:52.910Z,3.10
2022-08-05T03:15:21.033Z,3.20
2022-08-05T03:17:53.859Z,3.28
2022-08-05T03:20:22.503Z,3.40
2022-08-05T03:22:51.512Z,3.40
2022-08-05T03:25:33.643Z,3.13
2022-08-05T03:28:08.276Z,3.45
2022-08-05T03:30:36.276Z,3.22
2022-08-05T03:33:04.121Z,3.30
2022-08-05T03:35:33.817Z,3.17
2022-08-05T03:38:07.894Z,3.50
2022-08-05T03:40:35.823Z,2.95
2022-08-05T03:43:59.017Z,3.45
2022-08-05T03:45:57.883Z,3.33
2022-08-05T03:48:26.504Z,3.20
2022-08-05T03:52:38.009Z,3.50
2022-08-05T03:55:53.610Z,3.17
2022-08-05T03:56:58.900Z,3.28
2022-08-05T03:59:47.170Z,3.15
2022-08-05T04:02:37.961Z,3.22
2022-08-05T04:05:13.306Z,3.50
2022-08-05T04:07:57.232Z,3.22
2022-08-05T04:10:27.856Z,3.22
2022-08-05T04:12:56.075Z,3.03
2022-08-05T04:15:26.432Z,3.10
2022-08-05T04:17:59.879Z,2.97
2022-08-05T04:20:27.412Z,3.30
2022-08-05T04:22:54.959Z,3.03
2022-08-05T04:25:56.759Z,3.20
2022-08-05T04:28:12.966Z,3.65
2022-08-05T04:30:40.246Z,3.30
2022-08-05T04:33:10.155Z,3.30
2022-08-05T04:36:10.807Z,3.25
2022-08-05T04:38:39.258Z,3.45
2022-08-05T04:41:09.392Z,3.10
2022-08-05T04:43:37.332Z,3.08
2022-08-05T04:46:05.172Z,2.78
2022-08-05T04:48:32.412Z,2.90
2022-08-05T04:51:03.351Z,3.10
2022-08-05T04:53:39.036Z,3.03
2022-08-05T04:56:32.765Z,3.00
2022-08-05T04:58:56.478Z,2.78
2022-08-05T05:02:06.057Z,2.70
2022-08-05T05:04:10.832Z,2.88
2022-08-05T05:06:40.912Z,2.85
2022-08-05T05:09:14.125Z,2.85
2022-08-05T05:11:54.652Z,2.95
2022-08-05T05:14:31.450Z,3.53
2022-08-05T05:16:58.946Z,2.78
2022-08-05T05:19:27.310Z,2.70
2022-08-05T05:21:55.559Z,2.30
2022-08-05T05:24:22.883Z,2.50
2022-08-05T05:27:10.272Z,2.55
2022-08-05T05:30:03.628Z,2.33
2022-08-05T05:32:24.761Z,2.20
2022-08-05T05:34:53.092Z,2.65
2022-08-05T05:37:20.728Z,2.03
2022-08-05T05:39:56.325Z,2.03
2022-08-05T05:42:23.748Z,2.67
2022-08-05T05:44:51.222Z,2.20
2022-08-05T05:47:22.016Z,2.10
2022-08-05T05:49:56.500Z,2.45
2022-08-05T05:52:28.739Z,2.20
2022-08-05T05:55:02.225Z,1.95
2022-08-05T05:57:42.723Z,2.10
2022-08-05T06:00:20.807Z,2.20
2022-08-05T06:02:55.019Z,2.40
2022-08-05T06:05:22.394Z,2.40
2022-08-05T06:07:57.547Z,2.40
2022-08-05T06:10:29.264Z,2.38
2022-08-05T06:12:56.718Z,2.38
2022-08-05T06:15:24.810Z,2.20
2022-08-05T06:18:11.940Z,2.35
2022-08-05T06:20:39.193Z,2.30
2022-08-05T06:23:06.343Z,2.10
2022-08-05T06:26:12.976Z,2.03
2022-08-05T06:28:21.692Z,2.17
2022-08-05T06:30:49.308Z,2.45
2022-08-05T06:33:19.237Z,2.10
2022-08-05T06:36:03.669Z,2.10
2022-08-05T06:38:35.934Z,2.30
2022-08-05T06:41:04.331Z,2.00
2022-08-05T06:43:59.153Z,2.20
2022-08-05T06:46:18.848Z,2.20
2022-08-05T06:48:55.606Z,2.00
2022-08-05T06:51:30.050Z,2.17
2022-08-05T06:53:58.852Z,2.20
2022-08-05T06:56:27.037Z,2.17
2022-08-05T06:58:54.441Z,2.17
2022-08-05T07:01:22.683Z,2.03
2022-08-05T07:03:50.276Z,1.92
2022-08-05T07:06:17.524Z,2.15
2022-08-05T07:08:51.854Z,2.08
2022-08-05T07:11:22.576Z,2.10
2022-08-05T07:14:20.792Z,2.17
2022-08-05T07:17:59.792Z,2.10
2022-08-05T07:20:32.361Z,2.22
2022-08-05T07:22:38.710Z,2.30
2022-08-05T07:25:23.944Z,2.00
2022-08-05T07:28:02.313Z,1.95
2022-08-05T07:30:34.236Z,2.13
2022-08-05T07:33:09.505Z,2.20
2022-08-05T07:36:04.784Z,2.10
2022-08-05T07:38:33.741Z,2.13
2022-08-05T07:41:35.168Z,2.33
2022-08-05T07:43:56.344Z,2.20
2022-08-05T07:46:25.972Z,2.50
2022-08-05T07:49:03.654Z,2.33
2022-08-05T07:51:40.751Z,2.40
2022-08-05T07:54:15.971Z,2.10
2022-08-05T07:57:02.367Z,2.67
2022-08-05T07:59:39.856Z,2.60
2022-08-05T08:02:16.253Z,2.38
2022-08-05T08:04:48.734Z,2.30
2022-08-05T08:07:18.006Z,2.20
2022-08-05T08:09:45.486Z,2.30
2022-08-05T08:12:37.377Z,2.08
2022-08-05T08:15:04.390Z,2.35
2022-08-05T08:17:32.447Z,2.20
2022-08-05T08:20:21.616Z,2.05
2022-08-05T08:22:57.594Z,2.15
2022-08-05T08:25:26.822Z,2.33
2022-08-05T08:28:18.289Z,2.00
2022-08-05T08:30:47.531Z,2.08
2022-08-05T08:33:16.739Z,2.33
2022-08-05T08:35:53.860Z,2.22
2022-08-05T08:38:35.321Z,2.10
2022-08-05T08:41:05.662Z,2.35
2022-08-05T08:45:22.307Z,2.20
2022-08-05T08:46:22.061Z,2.47
2022-08-05T08:49:07.470Z,2.28
2022-08-05T08:52:05.796Z,1.90
2022-08-05T08:54:27.402Z,2.10
2022-08-05T08:56:56.433Z,1.92
2022-08-05T08:59:27.708Z,2.00
2022-08-05T09:02:01.366Z,1.88
2022-08-05T09:04:30.335Z,1.85
2022-08-05T09:06:58.426Z,2.10
2022-08-05T09:09:34.654Z,2.45
2022-08-05T09:12:13.568Z,1.90
2022-08-05T09:14:58.978Z,1.92
2022-08-05T09:17:40.639Z,2.15
2022-08-05T09:20:11.100Z,1.98
2022-08-05T09:23:05.347Z,2.00
2022-08-05T09:26:00.240Z,2.00
2022-08-05T09:28:24.414Z,2.10
2022-08-05T09:31:22.366Z,2.10
2022-08-05T09:34:01.302Z,1.88
2022-08-05T09:36:54.493Z,2.35
2022-08-05T09:39:27.764Z,1.88
2022-08-05T09:42:17.393Z,1.80
2022-08-05T09:44:51.817Z,2.03
2022-08-05T09:47:23.262Z,1.80
2022-08-05T09:50:01.610Z,1.70
2022-08-05T09:52:36.431Z,1.80
2022-08-05T09:55:56.715Z,1.65
2022-08-05T09:58:00.651Z,1.60
2022-08-05T10:00:30.399Z,1.90
2022-08-05T10:02:59.185Z,2.10
2022-08-05T10:05:27.799Z,1.98
2022-08-05T10:08:36.706Z,2.05
2022-08-05T10:10:50.268Z,2.08
2022-08-05T10:13:43.973Z,1.88
2022-08-05T10:16:41.883Z,2.08
2022-08-05T10:19:23.468Z,2.08
2022-08-05T10:21:58.974Z,2.05
2022-08-05T10:24:27.124Z,2.10
2022-08-05T10:27:00.567Z,2.25
2022-08-05T10:30:06.594Z,1.92
2022-08-05T10:32:53.125Z,1.80
2022-08-05T10:35:07.114Z,2.00
2022-08-05T10:37:40.233Z,2.10
2022-08-05T10:40:19.509Z,1.70
2022-08-05T10:42:48.249Z,1.80
2022-08-05T10:45:23.879Z,1.75
2022-08-05T10:48:29.904Z,2.08
2022-08-05T10:51:05.520Z,1.88
2022-08-05T10:53:55.378Z,2.00
2022-08-05T10:56:25.809Z,1.90
2022-08-05T10:58:56.117Z,1.85
2022-08-05T11:01:55.495Z,2.10
2022-08-05T11:04:17.528Z,1.90
2022-08-05T11:06:57.942Z,1.90
2022-08-05T11:09:45.116Z,1.88
2022-08-05T11:12:25.245Z,1.83
2022-08-05T11:15:20.290Z,1.90
2022-08-05T11:17:58.676Z,1.80
2022-08-05T11:20:39.218Z,2.15
2022-08-05T11:23:33.336Z,1.75
2022-08-05T11:26:11.335Z,1.83
2022-08-05T11:28:39.494Z,1.80
2022-08-05T11:31:07.378Z,1.60
2022-08-05T11:33:46.436Z,1.73
2022-08-05T11:36:33.932Z,1.65
2022-08-05T11:39:02.033Z,1.60
2022-08-05T11:41:57.912Z,1.40
2022-08-05T11:44:53.010Z,1.40
2022-08-05T11:47:13.970Z,1.13
2022-08-05T11:49:49.738Z,1.60
2022-08-05T11:52:29.084Z,1.50
2022-08-05T11:54:58.191Z,1.40
2022-08-05T11:57:30.665Z,1.30
2022-08-05T11:59:58.278Z,1.48
2022-08-05T12:02:33.746Z,1.40
2022-08-05T12:05:06.829Z,1.38
2022-08-05T12:08:08.296Z,1.55
2022-08-05T12:10:43.783Z,1.40
2022-08-05T12:13:16.600Z,1.50
2022-08-05T12:15:49.739Z,1.90
2022-08-05T12:18:20.824Z,1.73
2022-08-05T12:20:51.578Z,1.63
2022-08-05T12:23:18.711Z,1.80
2022-08-05T12:25:56.715Z,1.70
2022-08-05T12:28:39.728Z,1.98
2022-08-05T12:31:07.939Z,1.48
2022-08-05T12:33:36.665Z,1.73
2022-08-05T12:36:08.132Z,1.48
2022-08-05T12:38:37.962Z,1.50
2022-08-05T12:41:13.361Z,1.65
2022-08-05T12:43:55.132Z,1.67
2022-08-05T12:46:28.816Z,1.70
2022-08-05T12:49:15.707Z,1.90
2022-08-05T12:52:13.875Z,1.73
2022-08-05T12:54:34.603Z,1.90
2022-08-05T12:57:03.747Z,1.60
2022-08-05T12:59:46.626Z,1.60
2022-08-05T13:02:30.332Z,1.60
2022-08-05T13:04:58.722Z,1.63
2022-08-05T13:07:55.869Z,1.70
2022-08-05T13:10:19.639Z,1.70
2022-08-05T13:12:57.114Z,2.03
2022-08-05T13:15:35.902Z,2.00
2022-08-05T13:18:12.772Z,1.77
2022-08-05T13:20:47.172Z,1.52
2022-08-05T13:23:14.918Z,2.03
2022-08-05T13:25:52.542Z,1.80
2022-08-05T13:28:26.326Z,1.70
2022-08-05T13:30:53.732Z,1.70
2022-08-05T13:34:25.042Z,1.85
2022-08-05T13:36:09.484Z,2.00
2022-08-05T13:38:38.561Z,1.95
2022-08-05T13:41:09.361Z,2.08
2022-08-05T13:43:45.858Z,2.00
2022-08-05T13:46:37.587Z,2.08
2022-08-05T13:49:10.230Z,2.00
2022-08-05T13:51:41.357Z,2.00
2022-08-05T13:54:13.494Z,2.03
2022-08-05T13:56:45.163Z,2.13
2022-08-05T13:59:19.412Z,2.08
2022-08-05T14:01:57.444Z,1.70
2022-08-05T14:04:51.038Z,2.10
2022-08-05T14:07:55.563Z,1.80
2022-08-05T14:10:11.515Z,2.10
2022-08-05T14:12:38.725Z,1.90
2022-08-05T14:16:05.754Z,2.00
2022-08-05T14:17:55.096Z,2.00
2022-08-05T14:20:27.614Z,1.73
2022-08-05T14:22:55.065Z,2.00
2022-08-05T14:25:28.226Z,2.03
2022-08-05T14:27:55.727Z,2.28
2022-08-05T14:30:23.157Z,2.30
2022-08-05T14:32:53.979Z,2.40
2022-08-05T14:35:22.872Z,2.30
2022-08-05T14:37:55.072Z,2.30
2022-08-05T14:40:24.577Z,2.20
2022-08-05T14:42:52.128Z,2.50
2022-08-05T14:45:19.294Z,2.22
2022-08-05T14:48:05.097Z,2.60
2022-08-05T14:50:39.757Z,2.40
2022-08-05T14:53:08.113Z,2.45
2022-08-05T14:55:39.080Z,2.35
2022-08-05T14:58:10.819Z,2.40
2022-08-05T15:00:58.307Z,2.60
2022-08-05T15:03:33.756Z,2.60
2022-08-05T15:06:07.999Z,2.40
2022-08-05T15:08:59.688Z,2.70
2022-08-05T15:11:50.968Z,2.65
2022-08-05T15:14:33.334Z,2.60
2022-08-05T15:17:03.713Z,2.88
2022-08-05T15:19:31.301Z,2.65
2022-08-05T15:22:01.020Z,3.08
2022-08-05T15:24:28.907Z,2.92
2022-08-05T15:26:57.194Z,2.80
2022-08-05T15:29:30.161Z,2.67
2022-08-05T15:32:03.111Z,2.90
2022-08-05T15:34:33.225Z,3.05
2022-08-05T15:37:06.462Z,3.20
2022-08-05T15:41:03.016Z,2.90
2022-08-05T15:42:53.705Z,2.92
2022-08-05T15:45:15.998Z,2.80
2022-08-05T15:47:43.657Z,3.10
2022-08-05T15:50:15.171Z,3.38
2022-08-05T15:52:53.872Z,3.15
2022-08-05T15:55:24.603Z,3.00
2022-08-05T15:57:52.430Z,3.17
2022-08-05T16:00:26.229Z,3.20
2022-08-05T16:02:59.999Z,3.20
2022-08-05T16:05:28.276Z,2.78
2022-08-05T16:07:55.718Z,3.00
2022-08-05T16:10:25.522Z,3.58
2022-08-05T16:12:56.208Z,3.13
2022-08-05T16:15:23.956Z,2.90
2022-08-05T16:17:57.486Z,3.00
2022-08-05T16:20:24.762Z,3.15
2022-08-05T16:22:51.900Z,3.10
2022-08-05T16:25:19.039Z,2.95
2022-08-05T16:28:00.236Z,3.13
2022-08-05T16:30:30.810Z,3.45
2022-08-05T16:32:59.538Z,3.47
2022-08-05T16:35:28.332Z,3.65
2022-08-05T16:38:16.076Z,4.15
2022-08-05T16:40:51.731Z,3.78
2022-08-05T16:43:25.379Z,4.20
2022-08-05T16:46:06.452Z,4.40
2022-08-05T16:48:36.076Z,4.90
2022-08-05T16:51:03.927Z,4.78
2022-08-05T16:54:06.229Z,3.95
2022-08-05T16:56:25.080Z,4.68
2022-08-05T16:58:52.207Z,3.90
2022-08-05T17:01:19.770Z,4.20
2022-08-05T17:03:47.979Z,4.43
2022-08-05T17:06:16.358Z,4.38
2022-08-05T17:08:52.740Z,4.30
2022-08-05T17:11:23.843Z,4.47
2022-08-05T17:14:00.420Z,4.32
2022-08-05T17:16:36.658Z,4.15
2022-08-05T17:19:07.437Z,4.60
2022-08-05T17:21:37.172Z,4.60
2022-08-05T17:24:30.146Z,5.22
2022-08-05T17:26:57.324Z,4.80
2022-08-05T17:29:39.865Z,4.72
2022-08-05T17:32:11.898Z,5.38
2022-08-05T17:34:47.583Z,6.28
2022-08-05T17:37:32.157Z,6.00
2022-08-05T17:40:03.521Z,6.35
2022-08-05T17:42:32.289Z,6.60
2022-08-05T17:45:18.223Z,6.25
2022-08-05T17:47:52.961Z,5.82
2022-08-05T17:50:28.420Z,5.80
2022-08-05T17:52:58.901Z,6.00
2022-08-05T17:55:34.363Z,6.25
2022-08-05T17:58:05.761Z,5.90
2022-08-05T18:00:34.613Z,6.13
2022-08-05T18:03:02.709Z,5.65
2022-08-05T18:05:35.459Z,5.45
2022-08-05T18:08:03.499Z,5.70
2022-08-05T18:10:33.405Z,5.55
2022-08-05T18:13:01.984Z,5.43
2022-08-05T18:15:38.666Z,5.53
2022-08-05T18:18:11.070Z,5.35
2022-08-05T18:20:38.850Z,5.45
2022-08-05T18:23:09.036Z,5.22
2022-08-05T18:25:38.751Z,4.93
2022-08-05T18:28:06.595Z,4.65
2022-08-05T18:30:34.118Z,5.20
2022-08-05T18:33:01.751Z,5.15
2022-08-05T18:35:59.993Z,4.15
2022-08-05T18:38:25.976Z,3.85
2022-08-05T18:41:55.014Z,4.47
2022-08-05T18:43:43.118Z,4.15
2022-08-05T18:46:19.924Z,4.30
2022-08-05T18:48:48.061Z,4.05
2022-08-05T18:52:05.516Z,3.80
2022-08-05T18:54:25.505Z,3.70
2022-08-05T18:56:52.651Z,3.72
2022-08-05T18:59:42.666Z,3.63
2022-08-05T19:02:27.078Z,3.70
2022-08-05T19:05:01.699Z,4.00
2022-08-05T19:07:46.310Z,3.70
2022-08-05T19:10:14.217Z,3.63
2022-08-05T19:12:41.434Z,3.92
2022-08-05T19:15:10.608Z,3.60
2022-08-05T19:18:08.617Z,5.63
2022-08-05T19:20:37.093Z,7.47
2022-08-05T19:24:03.292Z,7.30
2022-08-05T19:26:02.001Z,6.03
2022-08-05T19:28:30.759Z,5.45
2022-08-05T19:30:58.028Z,5.72
2022-08-05T19:33:35.163Z,5.63
2022-08-05T19:36:06.323Z,5.78
2022-08-05T19:38:34.069Z,5.00
2022-08-05T19:41:02.912Z,5.10
2022-08-05T19:44:06.046Z,4.73
2022-08-05T19:46:29.017Z,4.17
2022-08-05T19:48:57.952Z,4.30
2022-08-05T19:52:08.391Z,4.23
2022-08-05T19:54:26.813Z,3.60
2022-08-05T19:56:58.859Z,3.37
2022-08-05T19:59:55.577Z,3.63
2022-08-05T20:02:14.509Z,3.53
2022-08-05T20:04:43.258Z,3.47
2022-08-05T20:07:13.887Z,2.90
2022-08-05T20:09:55.170Z,2.93
2022-08-05T20:12:24.923Z,2.70
2022-08-05T20:14:53.134Z,2.50
2022-08-05T20:17:24.051Z,3.10
2022-08-05T20:19:57.391Z,2.80
2022-08-05T20:22:27.117Z,2.50
2022-08-05T20:24:55.376Z,2.63
2022-08-05T20:27:26.932Z,2.90
2022-08-05T20:29:58.247Z,2.30
2022-08-05T20:32:26.955Z,2.50
2022-08-05T20:34:54.567Z,2.73
2022-08-05T20:38:04.909Z,2.40
2022-08-05T20:40:09.404Z,2.50
2022-08-05T20:42:36.676Z,2.60
2022-08-05T20:45:04.492Z,2.37
2022-08-05T20:47:32.751Z,2.07
2022-08-05T20:50:01.964Z,2.63
2022-08-05T20:52:29.907Z,2.20
2022-08-05T20:55:54.270Z,2.47
2022-08-05T20:57:45.125Z,2.67
2022-08-05T21:00:41.176Z,2.33
2022-08-05T21:03:07.100Z,2.10
2022-08-05T21:05:47.655Z,2.13
2022-08-05T21:08:21.322Z,2.50
2022-08-05T21:10:55.549Z,2.20
2022-08-05T21:13:41.298Z,2.20
2022-08-05T21:16:12.943Z,2.00
2022-08-05T21:18:44.983Z,2.40
2022-08-05T21:21:12.538Z,2.10
2022-08-05T21:23:39.693Z,2.10
2022-08-05T21:26:08.276Z,1.83
2022-08-05T21:28:50.516Z,1.90
2022-08-05T21:31:18.251Z,2.20
2022-08-05T21:33:47.535Z,2.00
2022-08-05T21:36:19.097Z,1.80
2022-08-05T21:38:55.117Z,1.83
2022-08-05T21:41:22.418Z,1.97
2022-08-05T21:44:01.251Z,2.07
2022-08-05T21:46:30.544Z,1.90
2022-08-05T21:48:59.767Z,1.60
2022-08-05T21:52:15.781Z,1.90
2022-08-05T21:54:14.991Z,1.93
2022-08-05T21:56:44.354Z,1.80
2022-08-05T21:59:22.549Z,1.90
2022-08-05T22:01:51.264Z,1.87
2022-08-05T22:04:25.244Z,1.80
2022-08-05T22:06:52.933Z,1.80
2022-08-05T22:09:21.133Z,2.30
2022-08-05T22:11:49.493Z,1.90
2022-08-05T22:14:33.778Z,2.00
2022-08-05T22:17:05.140Z,1.90
2022-08-05T22:20:00.190Z,1.93
2022-08-05T22:22:27.615Z,1.87
2022-08-05T22:25:18.249Z,1.70
2022-08-05T22:28:08.826Z,1.80
2022-08-05T22:30:56.500Z,1.83
2022-08-05T22:33:56.326Z,2.00
2022-08-05T22:36:14.287Z,1.87
2022-08-05T22:38:42.603Z,1.93
2022-08-05T22:41:10.169Z,2.03
2022-08-05T22:43:38.182Z,1.90
2022-08-05T22:46:13.140Z,1.80
2022-08-05T22:48:41.323Z,1.80
2022-08-05T22:51:08.749Z,2.00
2022-08-05T22:53:43.342Z,2.10
2022-08-05T22:56:17.207Z,1.63
2022-08-05T22:58:57.124Z,1.70
2022-08-05T23:01:24.273Z,1.70
2022-08-05T23:04:11.516Z,1.60
2022-08-05T23:06:38.668Z,1.60
2022-08-05T23:09:27.212Z,1.80
2022-08-05T23:11:53.155Z,1.80
2022-08-05T23:14:22.709Z,1.80
2022-08-05T23:17:18.578Z,1.87
2022-08-05T23:19:56.065Z,1.50
2022-08-05T23:22:27.388Z,1.77
2022-08-05T23:24:55.269Z,1.90
2022-08-05T23:27:22.853Z,1.67
2022-08-05T23:29:51.389Z,2.00
2022-08-05T23:32:23.088Z,1.87
2022-08-05T23:34:50.882Z,1.90
2022-08-05T23:37:18.202Z,1.70
2022-08-05T23:39:54.163Z,1.60
2022-08-05T23:42:23.492Z,1.80
2022-08-05T23:44:56.316Z,1.80
2022-08-05T23:47:24.927Z,1.50
2022-08-05T23:49:55.839Z,1.87
2022-08-05T23:52:26.778Z,2.07
2022-08-05T23:54:55.454Z,1.87
2022-08-05T23:57:23.113Z,1.87
